createdAt,value
2018-07-06T00:01:53.220Z,99.90
2018-07-06T00:04:39.701Z,99.90
2018-07-06T00:07:26.112Z,99.90
2018-07-06T00:10:12.509Z,99.90
2018-07-06T00:12:58.964Z,99.90
2018-07-06T00:15:45.179Z,99.90
2018-07-06T00:18:31.609Z,99.90
2018-07-06T00:21:18.163Z,99.90
2018-07-06T00:26:44.814Z,99.90
2018-07-06T00:32:11.419Z,99.90
2018-07-06T00:34:57.817Z,99.90
2018-07-06T00:37:44.316Z,99.90
2018-07-06T00:40:30.729Z,99.90
2018-07-06T00:43:17.139Z,99.90
2018-07-06T00:46:03.557Z,99.90
2018-07-06T00:48:49.951Z,99.90
2018-07-06T00:51:36.448Z,99.90
2018-07-06T00:54:22.936Z,99.90
2018-07-06T00:57:09.284Z,99.90
2018-07-06T01:02:36.080Z,99.90
2018-07-06T01:05:22.449Z,99.90
2018-07-06T01:10:49.132Z,99.90
2018-07-06T01:13:35.435Z,99.90
2018-07-06T01:16:21.715Z,99.90
2018-07-06T01:19:08.044Z,99.90
2018-07-06T01:21:54.452Z,99.90
2018-07-06T01:24:40.804Z,99.90
2018-07-06T01:27:27.265Z,99.90
2018-07-06T01:30:14.119Z,99.90
2018-07-06T01:35:40.893Z,99.90
2018-07-06T01:38:27.096Z,99.90
2018-07-06T01:41:13.427Z,99.90
2018-07-06T01:43:59.977Z,99.90
2018-07-06T01:46:46.430Z,99.90
2018-07-06T01:49:32.831Z,99.90
2018-07-06T01:52:19.212Z,99.90
2018-07-06T01:55:05.635Z,99.90
2018-07-06T01:57:52.019Z,99.90
2018-07-06T02:00:38.544Z,99.90
2018-07-06T02:03:25.073Z,99.90
2018-07-06T02:06:11.448Z,99.90
2018-07-06T02:08:57.844Z,99.90
2018-07-06T02:11:44.285Z,99.90
2018-07-06T02:14:30.760Z,99.90
2018-07-06T02:17:17.505Z,99.90
2018-07-06T02:20:03.885Z,99.90
2018-07-06T02:22:50.116Z,99.90
2018-07-06T02:25:36.548Z,99.90
2018-07-06T02:28:23.078Z,99.90
2018-07-06T02:31:09.504Z,99.90
2018-07-06T02:33:55.942Z,99.90
2018-07-06T02:36:42.359Z,99.90
2018-07-06T02:39:28.740Z,99.90
2018-07-06T02:42:15.213Z,99.90
2018-07-06T02:45:01.699Z,99.90
2018-07-06T02:47:48.291Z,99.90
2018-07-06T02:50:34.557Z,99.90
2018-07-06T02:53:20.991Z,99.90
2018-07-06T02:56:07.473Z,99.90
2018-07-06T02:58:53.885Z,99.90
2018-07-06T03:01:40.413Z,99.90
2018-07-06T03:04:26.897Z,99.90
2018-07-06T03:07:13.306Z,99.90
2018-07-06T03:09:59.575Z,99.90
2018-07-06T03:12:45.984Z,99.90
2018-07-06T03:15:32.137Z,99.90
2018-07-06T03:20:58.703Z,99.90
2018-07-06T03:23:45.184Z,99.90
2018-07-06T03:26:31.520Z,99.90
2018-07-06T03:29:18.197Z,99.90
2018-07-06T03:34:44.808Z,99.90
2018-07-06T03:37:31.259Z,99.90
2018-07-06T03:42:58.264Z,99.90
2018-07-06T03:45:44.719Z,99.90
2018-07-06T03:51:14.265Z,99.90
2018-07-06T03:54:00.680Z,99.90
2018-07-06T03:56:47.199Z,99.90
2018-07-06T03:59:33.588Z,99.90
2018-07-06T04:02:19.899Z,99.90
2018-07-06T04:05:06.296Z,99.90
2018-07-06T04:07:52.955Z,99.90
2018-07-06T04:13:19.664Z,99.90
2018-07-06T04:16:05.938Z,99.90
2018-07-06T04:18:56.573Z,99.90
2018-07-06T04:21:43.074Z,99.90
2018-07-06T04:24:30.133Z,99.90
2018-07-06T04:29:57.724Z,99.90
2018-07-06T04:32:44.041Z,99.90
2018-07-06T04:35:30.391Z,99.90
2018-07-06T04:38:16.771Z,99.90
2018-07-06T04:41:03.260Z,99.90
2018-07-06T04:43:49.708Z,99.90
2018-07-06T04:46:36.151Z,99.90
2018-07-06T04:49:22.723Z,99.90
2018-07-06T04:52:09.007Z,99.90
2018-07-06T04:54:55.476Z,99.90
2018-07-06T04:57:41.979Z,99.90
2018-07-06T05:00:28.396Z,99.90
2018-07-06T05:03:15.034Z,99.90
2018-07-06T05:08:41.605Z,99.90
2018-07-06T05:11:27.773Z,99.90
2018-07-06T05:14:14.113Z,99.90
2018-07-06T05:17:00.645Z,99.90
2018-07-06T05:19:47.084Z,99.90
2018-07-06T05:25:13.903Z,99.90
2018-07-06T05:28:00.425Z,99.90
2018-07-06T05:30:46.900Z,99.90
2018-07-06T05:33:33.400Z,99.90
2018-07-06T05:36:19.902Z,99.90
2018-07-06T05:39:06.759Z,99.90
2018-07-06T05:41:53.219Z,99.90
2018-07-06T05:44:39.759Z,99.90
2018-07-06T05:47:26.181Z,99.90
2018-07-06T05:50:12.786Z,99.90
2018-07-06T05:55:39.489Z,99.90
2018-07-06T05:58:26.003Z,99.90
2018-07-06T06:01:12.499Z,99.90
2018-07-06T06:03:58.905Z,99.90
2018-07-06T06:06:45.234Z,99.90
2018-07-06T06:09:14.676Z,99.90
2018-07-06T06:11:43.811Z,99.90
2018-07-06T06:14:12.940Z,99.90
2018-07-06T06:19:11.010Z,99.90
2018-07-06T06:21:40.111Z,99.90
2018-07-06T06:24:09.239Z,99.90
2018-07-06T06:26:38.381Z,99.90
2018-07-06T06:29:07.519Z,99.90
2018-07-06T06:34:05.549Z,99.90
2018-07-06T06:36:34.677Z,99.90
2018-07-06T06:39:09.327Z,99.90
2018-07-06T06:41:39.226Z,99.90
2018-07-06T06:44:08.708Z,99.90
2018-07-06T06:46:38.167Z,99.90
2018-07-06T06:49:07.608Z,99.90
2018-07-06T06:51:37.095Z,99.90
2018-07-06T06:54:06.538Z,99.90
2018-07-06T06:56:35.960Z,99.90
2018-07-06T06:59:05.454Z,99.90
2018-07-06T07:01:34.945Z,99.90
2018-07-06T07:04:04.393Z,99.90
2018-07-06T07:06:33.962Z,99.90
2018-07-06T07:09:04.589Z,99.90
2018-07-06T07:11:34.304Z,99.90
2018-07-06T07:14:03.896Z,99.90
2018-07-06T07:16:33.560Z,99.90
2018-07-06T07:19:03.203Z,99.90
2018-07-06T07:21:32.665Z,99.90
2018-07-06T07:24:02.133Z,99.90
2018-07-06T07:26:31.593Z,99.90
2018-07-06T07:29:01.306Z,99.90
2018-07-06T07:31:30.693Z,99.90
2018-07-06T07:34:00.228Z,99.90
2018-07-06T07:36:29.694Z,99.90
2018-07-06T07:38:59.217Z,99.90
2018-07-06T07:41:28.853Z,99.90
2018-07-06T07:43:58.394Z,99.90
2018-07-06T07:46:27.959Z,99.90
2018-07-06T07:48:57.402Z,99.90
2018-07-06T07:52:11.175Z,99.90
2018-07-06T07:54:47.732Z,99.90
2018-07-06T07:57:17.248Z,99.90
2018-07-06T07:59:47.127Z,99.90
2018-07-06T08:02:16.976Z,99.90
2018-07-06T08:04:47.894Z,99.90
2018-07-06T08:07:17.443Z,99.90
2018-07-06T08:09:47.034Z,99.90
2018-07-06T08:12:16.484Z,99.90
2018-07-06T08:14:46.046Z,89.60
2018-07-06T08:17:15.520Z,99.90
2018-07-06T08:19:45.170Z,99.90
2018-07-06T08:22:14.685Z,99.90
2018-07-06T08:24:44.177Z,99.90
2018-07-06T08:27:13.638Z,99.90
2018-07-06T08:29:43.158Z,99.90
2018-07-06T08:32:12.661Z,99.90
2018-07-06T08:34:59.010Z,99.90
2018-07-06T08:37:50.796Z,99.90
2018-07-06T08:40:21.246Z,99.90
2018-07-06T08:42:51.940Z,99.90
2018-07-06T08:45:21.448Z,99.90
2018-07-06T08:47:51.157Z,99.90
2018-07-06T08:50:20.599Z,99.90
2018-07-06T08:52:50.867Z,99.90
2018-07-06T08:55:20.442Z,99.90
2018-07-06T08:57:51.142Z,99.90
2018-07-06T09:00:20.401Z,99.90
2018-07-06T09:02:49.772Z,99.90
2018-07-06T09:05:19.037Z,99.90
2018-07-06T09:07:48.347Z,99.90
2018-07-06T09:10:17.629Z,99.90
2018-07-06T09:12:46.897Z,99.90
2018-07-06T09:15:16.191Z,99.90
2018-07-06T09:17:45.438Z,99.90
2018-07-06T09:20:14.769Z,99.90
2018-07-06T09:22:43.869Z,99.90
2018-07-06T09:25:13.040Z,99.90
2018-07-06T09:27:42.187Z,99.90
2018-07-06T09:30:11.325Z,99.90
2018-07-06T09:32:40.487Z,99.90
2018-07-06T09:35:09.639Z,99.90
2018-07-06T09:37:40.246Z,99.90
2018-07-06T09:40:10.148Z,99.90
2018-07-06T09:42:39.517Z,99.90
2018-07-06T09:45:08.955Z,99.90
2018-07-06T09:47:38.214Z,99.90
2018-07-06T09:50:07.468Z,99.90
2018-07-06T09:52:36.736Z,99.90
2018-07-06T09:55:05.929Z,99.90
2018-07-06T09:57:35.073Z,99.90
2018-07-06T10:00:04.644Z,99.90
2018-07-06T10:02:33.822Z,99.90
2018-07-06T10:05:02.973Z,99.90
2018-07-06T10:07:32.116Z,99.90
2018-07-06T10:10:01.287Z,99.90
2018-07-06T10:12:30.466Z,99.90
2018-07-06T10:14:59.609Z,99.90
2018-07-06T10:19:57.682Z,99.90
2018-07-06T10:22:26.821Z,99.90
2018-07-06T10:24:55.995Z,99.90
2018-07-06T10:27:36.457Z,99.90
2018-07-06T10:31:18.836Z,99.90
2018-07-06T10:33:48.028Z,99.90
2018-07-06T10:36:17.134Z,99.90
2018-07-06T10:38:46.325Z,99.90
2018-07-06T10:41:15.486Z,99.90
2018-07-06T10:43:45.606Z,99.90
2018-07-06T10:46:15.019Z,99.90
2018-07-06T10:48:44.452Z,99.90
2018-07-06T10:51:13.868Z,99.90
2018-07-06T10:53:43.229Z,99.90
2018-07-06T10:56:12.593Z,99.90
2018-07-06T11:01:11.120Z,99.90
2018-07-06T11:03:40.808Z,99.90
2018-07-06T11:06:10.229Z,99.90
2018-07-06T11:08:39.554Z,99.90
2018-07-06T11:11:08.955Z,1.00
2018-07-06T11:13:38.229Z,99.90
2018-07-06T11:16:07.609Z,99.90
2018-07-06T11:21:05.973Z,88.00
2018-07-06T11:23:35.262Z,85.30
2018-07-06T11:26:04.707Z,85.20
2018-07-06T11:31:03.075Z,85.50
2018-07-06T11:33:32.405Z,85.10
2018-07-06T11:36:01.651Z,99.90
2018-07-06T11:38:30.942Z,1.00
2018-07-06T11:41:00.295Z,99.90
2018-07-06T11:43:29.667Z,99.90
2018-07-06T11:45:58.919Z,1.00
2018-07-06T11:48:28.143Z,99.90
2018-07-06T11:50:57.349Z,99.90
2018-07-06T11:53:27.115Z,12.10
2018-07-06T11:55:56.447Z,99.90
2018-07-06T11:58:25.914Z,99.90
2018-07-06T12:00:55.060Z,29.40
2018-07-06T12:03:24.208Z,1.00
2018-07-06T12:05:53.351Z,99.90
2018-07-06T12:08:22.491Z,1.00
2018-07-06T12:10:51.631Z,1.00
2018-07-06T12:13:21.512Z,99.90
2018-07-06T12:15:51.526Z,99.90
2018-07-06T12:18:20.728Z,99.90
2018-07-06T12:20:49.876Z,99.90
2018-07-06T12:25:47.936Z,99.90
2018-07-06T12:28:17.086Z,99.90
2018-07-06T12:30:46.231Z,99.90
2018-07-06T12:33:15.357Z,1.00
2018-07-06T12:35:44.497Z,1.00
2018-07-06T12:38:13.645Z,1.00
2018-07-06T12:40:42.821Z,1.00
2018-07-06T12:43:11.953Z,1.00
2018-07-06T12:45:41.108Z,1.00
2018-07-06T12:48:10.254Z,1.00
2018-07-06T12:50:39.457Z,99.90
2018-07-06T12:53:08.597Z,99.90
2018-07-06T12:55:37.753Z,99.90
2018-07-06T13:03:05.453Z,99.90
2018-07-06T13:05:34.597Z,75.20
2018-07-06T13:08:03.725Z,34.10
2018-07-06T13:10:32.905Z,1.00
2018-07-06T13:13:02.029Z,1.00
2018-07-06T13:15:31.163Z,1.00
2018-07-06T13:18:00.369Z,11.10
2018-07-06T13:20:29.508Z,1.00
2018-07-06T13:22:58.646Z,1.00
2018-07-06T13:25:27.776Z,1.00
2018-07-06T13:27:56.945Z,1.00
2018-07-06T13:30:26.072Z,34.70
2018-07-06T13:32:55.229Z,77.30
2018-07-06T13:35:24.364Z,99.90
2018-07-06T13:37:53.519Z,99.90
2018-07-06T13:40:22.662Z,99.90
2018-07-06T13:42:51.830Z,91.50
2018-07-06T13:45:20.973Z,44.00
2018-07-06T13:47:50.112Z,67.70
2018-07-06T13:50:19.250Z,81.40
2018-07-06T13:52:48.402Z,97.80
2018-07-06T13:55:17.541Z,99.90
2018-07-06T13:57:46.703Z,99.90
2018-07-06T14:00:15.838Z,99.90
2018-07-06T14:02:44.971Z,99.90
2018-07-06T14:05:14.113Z,52.50
2018-07-06T14:07:43.260Z,1.00
2018-07-06T14:10:12.375Z,1.00
2018-07-06T14:12:41.508Z,1.00
2018-07-06T14:15:10.937Z,1.00
2018-07-06T14:17:40.067Z,1.00
2018-07-06T14:20:09.197Z,1.00
2018-07-06T14:22:38.380Z,1.00
2018-07-06T14:27:36.384Z,1.00
2018-07-06T14:30:05.645Z,1.00
2018-07-06T14:32:34.790Z,1.00
2018-07-06T14:35:03.998Z,1.00
2018-07-06T14:37:36.266Z,1.00
2018-07-06T14:40:05.417Z,1.00
2018-07-06T14:42:34.572Z,1.00
2018-07-06T14:45:03.704Z,1.00
2018-07-06T14:47:32.850Z,1.00
2018-07-06T14:50:01.998Z,1.00
2018-07-06T14:52:31.137Z,1.00
2018-07-06T14:55:00.269Z,1.00
2018-07-06T14:57:29.392Z,1.00
2018-07-06T14:59:58.540Z,1.00
2018-07-06T15:02:27.657Z,1.00
2018-07-06T15:07:25.695Z,1.00
2018-07-06T15:09:54.833Z,1.00
2018-07-06T15:12:24.001Z,1.00
2018-07-06T15:14:53.138Z,1.00
2018-07-06T15:17:22.317Z,1.00
2018-07-06T15:22:20.360Z,1.00
2018-07-06T15:24:49.515Z,1.00
2018-07-06T15:27:18.656Z,14.50
2018-07-06T15:29:47.802Z,6.10
2018-07-06T15:32:16.944Z,13.80
2018-07-06T15:34:46.072Z,1.00
2018-07-06T15:37:15.266Z,1.00
2018-07-06T15:39:44.408Z,1.00
2018-07-06T15:42:13.533Z,1.00
2018-07-06T15:44:42.667Z,1.00
2018-07-06T15:47:11.789Z,1.00
2018-07-06T15:49:40.964Z,1.00
2018-07-06T15:52:10.056Z,1.00
2018-07-06T15:57:08.104Z,1.00
2018-07-06T15:59:37.237Z,1.00
2018-07-06T16:02:06.412Z,1.00
2018-07-06T16:04:36.558Z,1.00
2018-07-06T16:07:05.681Z,99.90
2018-07-06T16:09:34.826Z,99.90
2018-07-06T16:12:03.989Z,99.90
2018-07-06T16:14:40.928Z,99.90
2018-07-06T16:19:38.991Z,99.90
2018-07-06T16:26:54.291Z,99.90
2018-07-06T16:29:23.421Z,99.90
2018-07-06T16:31:52.632Z,99.90
2018-07-06T16:34:21.697Z,99.90
2018-07-06T16:36:50.842Z,99.90
2018-07-06T16:39:19.985Z,99.90
2018-07-06T16:41:49.421Z,99.90
2018-07-06T16:44:18.556Z,99.90
2018-07-06T16:46:47.797Z,99.90
2018-07-06T16:49:16.929Z,99.90
2018-07-06T16:51:46.081Z,99.90
2018-07-06T16:54:15.211Z,99.90
2018-07-06T16:56:44.377Z,99.90
2018-07-06T16:59:13.517Z,99.90
2018-07-06T17:01:42.666Z,99.90
2018-07-06T17:04:11.797Z,99.90
2018-07-06T17:06:40.986Z,99.90
2018-07-06T17:09:10.080Z,99.90
2018-07-06T17:11:39.239Z,99.90
2018-07-06T17:14:08.377Z,99.90
2018-07-06T17:16:37.512Z,99.90
2018-07-06T17:19:06.637Z,99.90
2018-07-06T17:21:37.962Z,99.90
2018-07-06T17:24:07.207Z,99.90
2018-07-06T17:26:36.348Z,99.90
2018-07-06T17:29:05.509Z,99.90
2018-07-06T17:31:34.710Z,99.90
2018-07-06T17:34:03.790Z,99.90
2018-07-06T17:39:01.870Z,99.90
2018-07-06T17:43:59.937Z,99.90
2018-07-06T17:46:29.088Z,99.90
2018-07-06T17:48:58.233Z,99.90
2018-07-06T17:51:27.398Z,99.90
2018-07-06T17:53:56.549Z,99.90
2018-07-06T17:56:25.784Z,99.90
2018-07-06T17:58:54.878Z,99.90
2018-07-06T18:01:24.003Z,99.90
2018-07-06T18:03:53.137Z,99.90
2018-07-06T18:06:22.285Z,99.90
2018-07-06T18:08:51.436Z,99.90
2018-07-06T18:11:20.573Z,99.90
2018-07-06T18:13:49.717Z,99.90
2018-07-06T18:18:47.979Z,99.90
2018-07-06T18:21:17.445Z,99.90
2018-07-06T18:23:46.580Z,99.90
2018-07-06T18:26:15.707Z,99.90
2018-07-06T18:28:44.869Z,99.90
2018-07-06T18:31:13.992Z,99.90
2018-07-06T18:36:12.072Z,99.90
2018-07-06T18:41:10.117Z,99.90
2018-07-06T18:43:39.255Z,99.90
2018-07-06T18:46:08.417Z,99.90
2018-07-06T18:48:37.555Z,99.90
2018-07-06T18:51:07.060Z,99.90
2018-07-06T18:53:36.177Z,99.90
2018-07-06T18:56:05.381Z,99.90
2018-07-06T18:58:34.509Z,99.90
2018-07-06T19:01:03.646Z,99.90
2018-07-06T19:03:32.802Z,99.90
2018-07-06T19:06:01.930Z,99.90
2018-07-06T19:08:31.077Z,99.90
2018-07-06T19:11:00.202Z,99.90
2018-07-06T19:13:29.323Z,99.90
2018-07-06T19:15:58.468Z,99.90
2018-07-06T19:18:27.604Z,99.90
2018-07-06T19:20:56.795Z,99.90
2018-07-06T19:23:25.967Z,99.90
2018-07-06T19:30:52.945Z,1.00
2018-07-06T19:33:22.075Z,1.00
2018-07-06T19:35:51.235Z,1.00
2018-07-06T19:38:20.344Z,1.00
2018-07-06T19:40:49.493Z,1.00
2018-07-06T19:43:18.638Z,1.00
2018-07-06T19:45:47.773Z,1.00
2018-07-06T19:48:16.895Z,1.00
2018-07-06T19:50:46.024Z,1.00
2018-07-06T19:53:15.159Z,63.70
2018-07-06T19:55:44.301Z,99.90
2018-07-06T19:58:13.448Z,1.00
2018-07-06T20:00:42.573Z,99.90
2018-07-06T20:03:11.709Z,26.10
2018-07-06T20:05:40.899Z,14.50
2018-07-06T20:08:10.016Z,50.60
2018-07-06T20:10:39.149Z,7.80
2018-07-06T20:13:08.325Z,1.00
2018-07-06T20:18:06.397Z,37.90
2018-07-06T20:20:35.503Z,1.00
2018-07-06T20:23:04.640Z,25.00
2018-07-06T20:25:33.772Z,2.70
2018-07-06T20:28:02.908Z,32.30
2018-07-06T20:30:32.050Z,74.10
2018-07-06T20:33:01.189Z,99.90
2018-07-06T20:35:30.316Z,45.20
2018-07-06T20:37:59.443Z,44.40
2018-07-06T20:40:28.577Z,89.40
2018-07-06T20:42:57.713Z,99.90
2018-07-06T20:45:26.853Z,99.90
2018-07-06T20:47:55.992Z,99.90
2018-07-06T20:50:25.113Z,99.90
2018-07-06T20:52:54.248Z,1.00
2018-07-06T20:55:23.387Z,1.00
2018-07-06T20:57:52.520Z,1.00
2018-07-06T21:00:21.654Z,99.90
2018-07-06T21:02:50.793Z,17.50
2018-07-06T21:05:19.916Z,1.00
2018-07-06T21:07:49.053Z,64.50
2018-07-06T21:10:18.183Z,99.90
2018-07-06T21:12:47.298Z,1.00
2018-07-06T21:15:16.437Z,1.00
2018-07-06T21:17:45.559Z,1.00
2018-07-06T21:20:14.700Z,1.00
2018-07-06T21:22:43.868Z,1.00
2018-07-06T21:25:13.004Z,1.00
2018-07-06T21:30:11.360Z,1.00
2018-07-06T21:32:40.410Z,99.90
2018-07-06T21:35:09.539Z,99.90
2018-07-06T21:37:38.688Z,1.00
2018-07-06T21:40:07.833Z,99.90
2018-07-06T21:42:36.964Z,99.90
2018-07-06T21:45:06.267Z,1.00
2018-07-06T21:47:35.403Z,30.20
2018-07-06T21:50:04.541Z,1.00
2018-07-06T21:52:33.855Z,99.90
2018-07-06T21:57:31.909Z,99.90
2018-07-06T22:00:01.045Z,1.00
2018-07-06T22:04:59.097Z,99.90
2018-07-06T22:07:28.224Z,99.90
2018-07-06T22:12:26.370Z,73.40
2018-07-06T22:14:55.517Z,99.90
2018-07-06T22:19:53.570Z,1.00
2018-07-06T22:22:22.701Z,99.90
2018-07-06T22:27:20.752Z,99.90
2018-07-06T22:29:49.888Z,1.00
2018-07-06T22:32:19.048Z,1.00
2018-07-06T22:34:48.186Z,99.90
2018-07-06T22:37:17.327Z,1.00
2018-07-06T22:39:46.458Z,1.00
2018-07-06T22:42:15.597Z,99.90
2018-07-06T22:44:44.728Z,1.00
2018-07-06T22:47:13.856Z,12.80
2018-07-06T22:49:42.987Z,12.70
2018-07-06T22:52:12.123Z,99.90
2018-07-06T22:54:41.258Z,99.90
2018-07-06T22:57:10.469Z,22.10
2018-07-06T22:59:39.637Z,1.00
2018-07-06T23:04:38.088Z,88.30
2018-07-06T23:07:07.235Z,78.70
2018-07-06T23:09:36.356Z,1.00
2018-07-06T23:12:05.496Z,99.90
2018-07-06T23:14:34.640Z,1.00
2018-07-06T23:17:03.792Z,99.90
2018-07-06T23:19:32.922Z,99.90
2018-07-06T23:22:02.071Z,1.00
2018-07-06T23:24:31.227Z,99.90
2018-07-06T23:27:00.381Z,1.00
2018-07-06T23:29:29.504Z,1.00
2018-07-06T23:31:58.650Z,99.90
2018-07-06T23:34:27.777Z,1.00
2018-07-06T23:36:56.923Z,1.00
2018-07-06T23:39:26.051Z,1.00
2018-07-06T23:41:55.173Z,1.00
2018-07-06T23:46:53.216Z,99.90
2018-07-06T23:49:22.361Z,99.90
2018-07-06T23:51:51.504Z,99.90
2018-07-06T23:54:20.620Z,99.90
2018-07-06T23:56:49.752Z,1.00
2018-07-06T23:59:18.883Z,99.90
